createdAt,value
2022-11-05T00:00:35.316Z,74.19
2022-11-05T00:03:56.370Z,75.13
2022-11-05T00:07:33.130Z,76.21
2022-11-05T00:10:37.684Z,76.99
2022-11-05T00:13:58.878Z,77.89
2022-11-05T00:17:01.231Z,78.37
2022-11-05T00:20:05.039Z,80.30
2022-11-05T00:23:25.941Z,81.17
2022-11-05T00:26:28.345Z,81.84
2022-11-05T00:29:30.705Z,82.98
2022-11-05T00:32:33.816Z,83.37
2022-11-05T00:35:36.233Z,84.67
2022-11-05T00:38:38.654Z,84.09
2022-11-05T00:41:41.087Z,85.69
2022-11-05T00:45:01.553Z,85.29
2022-11-05T00:48:23.152Z,85.91
2022-11-05T00:51:25.522Z,86.02
2022-11-05T00:54:27.899Z,86.55
2022-11-05T00:57:30.247Z,87.27
2022-11-05T01:00:34.924Z,86.52
2022-11-05T01:03:39.216Z,87.04
2022-11-05T01:06:41.677Z,87.05
2022-11-05T01:09:44.404Z,86.02
2022-11-05T01:12:46.834Z,85.03
2022-11-05T01:15:50.923Z,84.72
2022-11-05T01:18:53.310Z,84.52
2022-11-05T01:21:55.649Z,85.73
2022-11-05T01:24:58.026Z,85.58
2022-11-05T01:28:04.642Z,85.17
2022-11-05T01:31:07.041Z,85.87
2022-11-05T01:34:09.413Z,86.08
2022-11-05T01:37:11.863Z,86.01
2022-11-05T01:40:17.613Z,86.35
2022-11-05T01:43:22.550Z,86.97
2022-11-05T01:46:42.918Z,87.13
2022-11-05T01:49:45.428Z,87.15
2022-11-05T01:52:49.843Z,87.00
2022-11-05T01:56:21.407Z,87.46
2022-11-05T01:59:31.452Z,88.00
2022-11-05T02:02:34.464Z,88.58
2022-11-05T02:05:37.232Z,89.07
2022-11-05T02:08:58.275Z,88.40
2022-11-05T02:12:01.051Z,88.85
2022-11-05T02:15:04.770Z,88.57
2022-11-05T02:18:22.551Z,88.52
2022-11-05T02:22:03.836Z,88.55
2022-11-05T02:25:25.266Z,88.72
2022-11-05T02:29:11.659Z,88.08
2022-11-05T02:32:51.893Z,88.23
2022-11-05T02:36:27.792Z,87.00
2022-11-05T02:39:50.759Z,87.31
2022-11-05T02:43:17.650Z,88.06
2022-11-05T02:46:44.638Z,88.74
2022-11-05T02:50:06.788Z,89.19
2022-11-05T02:53:24.544Z,88.71
2022-11-05T02:56:32.340Z,88.46
2022-11-05T02:59:34.769Z,88.33
2022-11-05T03:02:37.450Z,88.32
2022-11-05T03:06:05.607Z,87.82
2022-11-05T03:09:16.848Z,88.55
2022-11-05T03:12:52.188Z,88.12
2022-11-05T03:16:02.539Z,88.44
2022-11-05T03:19:15.665Z,88.87
2022-11-05T03:22:25.511Z,89.00
2022-11-05T03:25:30.467Z,88.92
2022-11-05T03:28:37.069Z,88.21
2022-11-05T03:31:41.656Z,88.13
2022-11-05T03:34:51.004Z,88.56
2022-11-05T03:38:00.427Z,88.74
2022-11-05T03:41:08.627Z,87.76
2022-11-05T03:44:14.728Z,86.81
2022-11-05T03:47:22.631Z,87.63
2022-11-05T03:50:42.168Z,86.06
2022-11-05T03:53:51.944Z,87.18
2022-11-05T03:57:16.658Z,87.62
2022-11-05T04:00:21.190Z,86.87
2022-11-05T04:03:23.528Z,87.48
2022-11-05T04:06:44.343Z,88.14
2022-11-05T04:10:05.489Z,88.40
2022-11-05T04:13:25.995Z,88.69
2022-11-05T04:16:47.072Z,89.27
2022-11-05T04:20:08.198Z,88.83
2022-11-05T04:23:29.225Z,89.36
2022-11-05T04:26:31.624Z,89.61
2022-11-05T04:29:52.366Z,89.46
2022-11-05T04:32:55.478Z,88.77
2022-11-05T04:35:57.900Z,86.97
2022-11-05T04:39:00.256Z,87.15
2022-11-05T04:42:02.637Z,86.37
2022-11-05T04:45:05.383Z,85.67
2022-11-05T04:48:08.231Z,86.00
2022-11-05T04:51:10.742Z,86.08
2022-11-05T04:54:13.124Z,86.26
2022-11-05T04:57:15.559Z,87.29
2022-11-05T05:00:19.648Z,86.81
2022-11-05T05:03:21.987Z,85.98
2022-11-05T05:06:24.405Z,86.51
2022-11-05T05:09:26.756Z,87.00
2022-11-05T05:12:29.650Z,87.07
2022-11-05T05:15:32.074Z,87.56
2022-11-05T05:18:34.884Z,88.29
2022-11-05T05:21:40.862Z,88.25
2022-11-05T05:24:44.622Z,87.93
2022-11-05T05:27:48.724Z,89.48
2022-11-05T05:30:56.169Z,89.49
2022-11-05T05:34:00.936Z,90.27
2022-11-05T05:37:03.283Z,91.29
2022-11-05T05:40:06.088Z,91.26
2022-11-05T05:43:08.807Z,91.44
2022-11-05T05:46:14.665Z,90.96
2022-11-05T05:49:17.100Z,91.24
2022-11-05T05:52:19.586Z,91.05
2022-11-05T05:55:21.948Z,92.23
2022-11-05T05:58:26.893Z,92.24
2022-11-05T06:01:29.315Z,92.67
2022-11-05T06:04:31.675Z,92.22
2022-11-05T06:07:37.182Z,91.99
2022-11-05T06:10:40.390Z,92.15
2022-11-05T06:13:42.811Z,92.52
2022-11-05T06:16:45.447Z,92.17
2022-11-05T06:19:47.947Z,92.40
2022-11-05T06:22:57.710Z,92.25
2022-11-05T06:26:01.690Z,92.60
2022-11-05T06:29:04.060Z,92.43
2022-11-05T06:32:06.468Z,92.73
2022-11-05T06:35:09.103Z,92.45
2022-11-05T06:38:11.444Z,91.80
2022-11-05T06:41:13.911Z,91.35
2022-11-05T06:44:16.310Z,91.05
2022-11-05T06:47:19.504Z,91.45
2022-11-05T06:50:27.050Z,91.94
2022-11-05T06:53:29.849Z,91.49
2022-11-05T06:56:32.177Z,91.62
2022-11-05T06:59:34.585Z,91.49
2022-11-05T07:02:36.971Z,91.80
2022-11-05T07:05:51.094Z,92.04
2022-11-05T07:08:53.973Z,91.96
2022-11-05T07:11:56.356Z,91.79
2022-11-05T07:14:58.734Z,92.21
2022-11-05T07:18:02.073Z,91.93
2022-11-05T07:21:05.148Z,91.83
2022-11-05T07:24:08.023Z,91.83
2022-11-05T07:27:10.424Z,91.62
2022-11-05T07:30:13.003Z,92.19
2022-11-05T07:33:15.511Z,92.18
2022-11-05T07:36:17.909Z,91.84
2022-11-05T07:39:20.565Z,91.58
2022-11-05T07:42:22.966Z,91.92
2022-11-05T07:45:26.471Z,91.80
2022-11-05T07:48:28.830Z,92.41
2022-11-05T07:51:31.285Z,91.91
2022-11-05T07:54:33.858Z,91.88
2022-11-05T07:57:47.025Z,92.01
2022-11-05T08:00:49.487Z,91.85
2022-11-05T08:03:52.213Z,90.77
2022-11-05T08:06:54.611Z,90.20
2022-11-05T08:09:56.971Z,90.34
2022-11-05T08:12:59.516Z,90.53
2022-11-05T08:16:02.770Z,90.73
2022-11-05T08:19:05.286Z,90.67
2022-11-05T08:22:07.777Z,90.80
2022-11-05T08:25:11.118Z,91.22
2022-11-05T08:28:13.764Z,90.69
2022-11-05T08:31:18.102Z,90.92
2022-11-05T08:34:20.535Z,90.85
2022-11-05T08:37:23.295Z,91.60
2022-11-05T08:40:26.443Z,91.65
2022-11-05T08:43:28.866Z,91.36
2022-11-05T08:46:31.292Z,91.12
2022-11-05T08:49:33.750Z,91.73
2022-11-05T08:52:36.113Z,91.92
2022-11-05T08:55:38.654Z,92.21
2022-11-05T08:58:41.233Z,92.07
2022-11-05T09:01:43.728Z,92.13
2022-11-05T09:04:46.232Z,92.45
2022-11-05T09:07:49.468Z,91.76
2022-11-05T09:10:51.897Z,91.52
2022-11-05T09:13:54.321Z,91.75
2022-11-05T09:16:56.662Z,91.12
2022-11-05T09:19:59.052Z,91.60
2022-11-05T09:23:01.532Z,91.66
2022-11-05T09:26:03.994Z,91.55
2022-11-05T09:29:09.229Z,91.46
2022-11-05T09:32:19.158Z,91.97
2022-11-05T09:35:21.478Z,92.01
2022-11-05T09:38:24.042Z,91.52
2022-11-05T09:41:26.364Z,91.67
2022-11-05T09:44:43.824Z,90.85
2022-11-05T09:47:56.868Z,90.64
2022-11-05T09:50:59.639Z,90.91
2022-11-05T09:54:02.188Z,91.46
2022-11-05T09:57:08.425Z,91.45
2022-11-05T10:00:18.171Z,91.55
2022-11-05T10:03:23.723Z,92.01
2022-11-05T10:06:27.740Z,92.60
2022-11-05T10:09:40.180Z,92.23
2022-11-05T10:12:52.618Z,91.90
2022-11-05T10:16:07.701Z,91.61
2022-11-05T10:19:16.943Z,91.06
2022-11-05T10:22:20.326Z,90.95
2022-11-05T10:25:27.475Z,90.75
2022-11-05T10:28:33.019Z,91.04
2022-11-05T10:31:37.286Z,90.03
2022-11-05T10:34:39.971Z,90.37
2022-11-05T10:37:42.602Z,90.15
2022-11-05T10:40:58.293Z,89.45
2022-11-05T10:44:06.674Z,89.80
2022-11-05T10:47:19.966Z,90.18
2022-11-05T10:50:28.063Z,90.13
2022-11-05T10:53:33.994Z,89.48
2022-11-05T10:56:38.949Z,89.84
2022-11-05T10:59:41.511Z,90.47
2022-11-05T11:03:05.735Z,89.51
2022-11-05T11:06:26.662Z,89.34
2022-11-05T11:09:33.045Z,89.70
2022-11-05T11:12:43.008Z,89.39
2022-11-05T11:15:45.391Z,89.41
2022-11-05T11:18:53.887Z,88.08
2022-11-05T11:22:05.221Z,88.50
2022-11-05T11:25:49.821Z,88.79
2022-11-05T11:28:57.946Z,88.42
2022-11-05T11:32:00.627Z,88.29
2022-11-05T11:35:05.330Z,89.18
2022-11-05T11:38:15.792Z,89.38
2022-11-05T11:41:20.825Z,89.21
2022-11-05T11:44:28.588Z,88.99
2022-11-05T11:47:43.955Z,89.73
2022-11-05T11:50:48.308Z,89.47
2022-11-05T11:53:55.940Z,89.74
2022-11-05T11:56:58.342Z,90.40
2022-11-05T12:00:09.511Z,91.04
2022-11-05T12:03:30.893Z,91.99
2022-11-05T12:06:51.722Z,92.26
2022-11-05T12:09:54.279Z,92.92
2022-11-05T12:13:03.981Z,92.65
2022-11-05T12:16:12.177Z,92.77
2022-11-05T12:19:49.356Z,92.81
2022-11-05T12:23:11.881Z,92.61
2022-11-05T12:26:27.227Z,93.16
2022-11-05T12:30:05.987Z,93.39
2022-11-05T12:33:23.898Z,93.28
2022-11-05T12:37:07.835Z,93.58
2022-11-05T12:40:28.354Z,93.75
2022-11-05T12:43:46.166Z,93.26
2022-11-05T12:46:58.733Z,93.20
2022-11-05T12:50:15.180Z,92.99
2022-11-05T12:53:23.797Z,93.56
2022-11-05T12:56:31.927Z,93.54
2022-11-05T12:59:47.490Z,93.71
2022-11-05T13:03:06.932Z,93.39
2022-11-05T13:06:14.772Z,93.64
2022-11-05T13:09:29.341Z,93.48
2022-11-05T13:12:37.089Z,93.26
2022-11-05T13:16:04.519Z,93.03
2022-11-05T13:19:23.295Z,93.14
2022-11-05T13:23:07.377Z,93.34
2022-11-05T13:26:19.815Z,93.31
2022-11-05T13:29:22.560Z,93.43
2022-11-05T13:32:29.612Z,92.73
2022-11-05T13:36:26.252Z,92.67
2022-11-05T13:40:03.554Z,92.66
2022-11-05T13:43:27.096Z,92.92
2022-11-05T13:46:56.777Z,92.81
2022-11-05T13:50:42.575Z,93.31
2022-11-05T13:54:20.290Z,93.10
2022-11-05T13:57:34.730Z,92.55
2022-11-05T14:00:48.963Z,92.69
2022-11-05T14:03:53.797Z,92.51
2022-11-05T14:07:07.458Z,92.72
2022-11-05T14:10:26.065Z,93.13
2022-11-05T14:13:37.429Z,92.74
2022-11-05T14:16:47.761Z,92.84
2022-11-05T14:20:05.414Z,91.70
2022-11-05T14:23:30.784Z,91.42
2022-11-05T14:26:36.332Z,90.92
2022-11-05T14:29:46.923Z,91.43
2022-11-05T14:32:50.959Z,90.86
2022-11-05T14:36:15.366Z,90.80
2022-11-05T14:39:18.874Z,91.03
2022-11-05T14:42:29.929Z,90.86
2022-11-05T14:45:39.435Z,90.40
2022-11-05T14:48:48.625Z,90.87
2022-11-05T14:51:56.849Z,90.89
2022-11-05T14:54:59.657Z,90.65
2022-11-05T14:58:04.169Z,90.85
2022-11-05T15:01:56.098Z,91.15
2022-11-05T15:05:35.685Z,91.19
2022-11-05T15:08:56.238Z,91.06
2022-11-05T15:12:05.231Z,90.56
2022-11-05T15:15:22.411Z,90.81
2022-11-05T15:18:30.432Z,90.72
2022-11-05T15:21:36.289Z,89.40
2022-11-05T15:24:42.746Z,90.02
2022-11-05T15:27:53.841Z,89.99
2022-11-05T15:31:13.096Z,89.70
2022-11-05T15:34:18.651Z,90.10
2022-11-05T15:37:26.501Z,90.24
2022-11-05T15:40:33.294Z,90.29
2022-11-05T15:43:35.632Z,89.88
2022-11-05T15:46:38.222Z,89.01
2022-11-05T15:49:43.359Z,88.97
2022-11-05T15:52:54.622Z,88.27
2022-11-05T15:56:06.325Z,88.33
2022-11-05T15:59:21.442Z,87.69
2022-11-05T16:02:29.943Z,88.42
2022-11-05T16:05:35.444Z,87.83
2022-11-05T16:08:37.950Z,87.48
2022-11-05T16:11:40.676Z,87.25
2022-11-05T16:14:43.924Z,86.51
2022-11-05T16:17:57.699Z,87.08
2022-11-05T16:21:17.638Z,86.91
2022-11-05T16:24:28.208Z,87.00
2022-11-05T16:27:32.210Z,87.37
2022-11-05T16:30:35.472Z,87.08
2022-11-05T16:33:45.419Z,86.56
2022-11-05T16:36:47.972Z,86.29
2022-11-05T16:39:52.700Z,86.04
2022-11-05T16:42:55.579Z,86.26
2022-11-05T16:46:00.468Z,86.49
2022-11-05T16:49:03.530Z,85.94
2022-11-05T16:52:10.793Z,85.63
2022-11-05T16:55:15.325Z,85.75
2022-11-05T16:58:26.731Z,85.73
2022-11-05T17:01:29.634Z,85.69
2022-11-05T17:04:32.442Z,85.85
2022-11-05T17:07:41.061Z,86.19
2022-11-05T17:10:44.905Z,86.10
2022-11-05T17:13:47.913Z,86.09
2022-11-05T17:16:50.737Z,85.83
2022-11-05T17:19:53.673Z,85.94
2022-11-05T17:22:57.493Z,86.38
2022-11-05T17:26:06.929Z,86.02
2022-11-05T17:29:09.858Z,85.36
2022-11-05T17:32:13.216Z,85.50
2022-11-05T17:35:16.463Z,85.10
2022-11-05T17:38:19.494Z,84.75
2022-11-05T17:41:24.143Z,85.38
2022-11-05T17:44:26.809Z,84.97
2022-11-05T17:47:30.126Z,85.17
2022-11-05T17:50:33.482Z,85.40
2022-11-05T17:53:37.056Z,84.69
2022-11-05T17:56:44.590Z,84.76
2022-11-05T17:59:48.057Z,84.54
2022-11-05T18:02:53.178Z,84.63
2022-11-05T18:06:06.502Z,84.64
2022-11-05T18:09:10.657Z,84.74
2022-11-05T18:12:13.553Z,84.54
2022-11-05T18:15:17.411Z,83.89
2022-11-05T18:18:21.714Z,84.18
2022-11-05T18:21:24.789Z,84.62
2022-11-05T18:24:27.595Z,84.39
2022-11-05T18:27:30.158Z,84.35
2022-11-05T18:30:34.359Z,84.19
2022-11-05T18:33:37.127Z,84.05
2022-11-05T18:36:40.202Z,83.59
2022-11-05T18:39:43.797Z,83.55
2022-11-05T18:42:46.724Z,83.91
2022-11-05T18:45:58.649Z,83.08
2022-11-05T18:49:02.594Z,83.01
2022-11-05T18:52:05.470Z,83.28
2022-11-05T18:55:08.693Z,82.81
2022-11-05T18:58:11.772Z,83.47
2022-11-05T19:01:27.018Z,82.66
2022-11-05T19:04:30.701Z,82.18
2022-11-05T19:07:37.015Z,82.09
2022-11-05T19:10:40.984Z,82.39
2022-11-05T19:13:44.083Z,82.28
2022-11-05T19:16:46.640Z,81.59
2022-11-05T19:19:49.346Z,81.98
2022-11-05T19:22:52.184Z,81.79
2022-11-05T19:25:54.959Z,81.66
2022-11-05T19:29:00.151Z,82.30
2022-11-05T19:32:03.697Z,82.08
2022-11-05T19:35:06.775Z,81.90
2022-11-05T19:38:10.293Z,81.93
2022-11-05T19:41:14.741Z,81.89
2022-11-05T19:44:18.019Z,81.40
2022-11-05T19:47:20.969Z,81.38
2022-11-05T19:50:23.827Z,80.93
2022-11-05T19:53:26.966Z,80.84
2022-11-05T19:56:32.703Z,81.13
2022-11-05T19:59:35.289Z,80.93
2022-11-05T20:02:38.402Z,80.28
2022-11-05T20:05:41.270Z,80.81
2022-11-05T20:09:07.148Z,80.17
2022-11-05T20:12:07.698Z,79.97
2022-11-05T20:15:10.852Z,79.70
2022-11-05T20:18:14.249Z,79.08
2022-11-05T20:21:18.139Z,79.35
2022-11-05T20:24:25.118Z,79.15
2022-11-05T20:27:29.032Z,79.52
2022-11-05T20:30:32.013Z,79.44
2022-11-05T20:33:35.037Z,79.08
2022-11-05T20:36:38.799Z,79.10
2022-11-05T20:39:41.650Z,79.30
2022-11-05T20:42:44.566Z,79.45
2022-11-05T20:45:47.301Z,79.37
2022-11-05T20:48:50.887Z,79.17
2022-11-05T20:51:53.945Z,79.21
2022-11-05T20:54:56.871Z,79.35
2022-11-05T20:58:00.051Z,78.74
2022-11-05T21:01:05.488Z,79.34
2022-11-05T21:04:08.649Z,78.88
2022-11-05T21:07:11.592Z,78.98
2022-11-05T21:10:14.488Z,78.25
2022-11-05T21:13:17.370Z,78.40
2022-11-05T21:16:23.305Z,78.12
2022-11-05T21:19:26.277Z,77.92
2022-11-05T21:22:29.050Z,77.99
2022-11-05T21:25:31.709Z,77.75
2022-11-05T21:28:35.355Z,77.77
2022-11-05T21:31:38.697Z,78.13
2022-11-05T21:34:41.405Z,77.29
2022-11-05T21:37:45.279Z,77.23
2022-11-05T21:40:48.945Z,76.86
2022-11-05T21:43:51.567Z,77.33
2022-11-05T21:46:58.302Z,77.26
2022-11-05T21:50:01.138Z,76.94
2022-11-05T21:53:22.466Z,77.41
2022-11-05T21:56:45.709Z,77.14
2022-11-05T21:59:48.418Z,77.18
2022-11-05T22:02:51.349Z,77.41
2022-11-05T22:05:56.403Z,77.51
2022-11-05T22:08:58.967Z,77.20
2022-11-05T22:12:02.460Z,76.63
2022-11-05T22:15:05.278Z,76.04
2022-11-05T22:18:07.892Z,76.20
2022-11-05T22:21:18.692Z,75.87
2022-11-05T22:24:22.212Z,76.55
2022-11-05T22:27:24.812Z,76.82
2022-11-05T22:30:27.743Z,76.91
2022-11-05T22:33:31.604Z,76.88
2022-11-05T22:36:34.932Z,77.24
2022-11-05T22:39:37.808Z,77.66
2022-11-05T22:42:40.496Z,78.00
2022-11-05T22:45:43.898Z,77.45
2022-11-05T22:48:46.682Z,77.61
2022-11-05T22:51:49.039Z,77.59
2022-11-05T22:54:51.398Z,78.13
2022-11-05T22:57:53.767Z,77.58
2022-11-05T23:00:56.148Z,77.90
2022-11-05T23:03:59.377Z,78.06
2022-11-05T23:07:26.127Z,77.86
2022-11-05T23:10:49.297Z,77.24
2022-11-05T23:13:51.738Z,77.33
2022-11-05T23:17:13.174Z,77.28
2022-11-05T23:20:37.265Z,77.05
2022-11-05T23:23:58.332Z,77.23
2022-11-05T23:27:00.728Z,77.37
2022-11-05T23:30:07.615Z,77.36
2022-11-05T23:33:10.608Z,78.02
2022-11-05T23:36:31.523Z,77.86
2022-11-05T23:39:37.014Z,77.60
2022-11-05T23:43:03.444Z,77.50
2022-11-05T23:46:24.322Z,77.73
2022-11-05T23:49:26.961Z,77.37
2022-11-05T23:52:29.782Z,77.68
2022-11-05T23:55:32.304Z,77.51
2022-11-05T23:58:36.189Z,77.55
